Time;durP1;ratioP1;P1;durP2;ratioP2;P2;SDS_P1;SDS_P2;PMS_P1;PMS_P2;Temp;Humidity;BMP_temperature;BMP_pressure;BME280_temperature;BME280_humidity;BME280_pressure;Samples;Min_cycle;Max_cycle;Signal;HPM_P1;HPM_P2
2022/09/27 00:01:05;;;;;;;0.43;0.27;;;;;;;12.42;81.21;93954.00;4396140;32;20202;-60
2022/09/27 00:03:36;;;;;;;0.30;0.30;;;;;;;12.59;80.37;93953.72;4385755;32;20191;-60
2022/09/27 00:06:15;;;;;;;0.20;0.20;;;;;;;12.24;82.10;93943.66;4379223;32;20218;-60
2022/09/27 00:08:42;;;;;;;0.33;0.33;;;;;;;12.45;82.04;93942.69;4387450;32;20184;-60
2022/09/27 00:11:20;;;;;;;0.20;0.20;;;;;;;12.44;82.64;93935.81;4363420;32;20225;-60
2022/09/27 00:13:49;;;;;;;0.20;0.20;;;;;;;12.32;83.11;93939.28;4387342;32;20291;-60
2022/09/27 00:16:16;;;;;;;0.40;0.40;;;;;;;12.46;82.72;93938.94;4368892;32;20207;-59
2022/09/27 00:18:43;;;;;;;0.70;0.70;;;;;;;12.41;82.65;93928.53;4355611;32;20184;-60
2022/09/27 00:21:12;;;;;;;0.37;0.37;;;;;;;12.51;82.02;93926.13;4377832;32;20270;-60
2022/09/27 00:23:39;;;;;;;0.20;0.20;;;;;;;12.33;82.96;93909.69;4377354;32;20177;-59
2022/09/27 00:26:06;;;;;;;0.30;0.30;;;;;;;12.38;83.24;93909.47;4384542;32;20207;-60
2022/09/27 00:28:33;;;;;;;0.53;0.30;;;;;;;12.54;83.02;93912.16;4379947;32;20181;-59
2022/09/27 00:30:59;;;;;;;0.40;0.40;;;;;;;12.53;83.91;93917.81;4392542;32;20191;-59
2022/09/27 00:33:26;;;;;;;0.67;0.67;;;;;;;12.48;84.07;93916.16;4374318;32;20207;-60
2022/09/27 00:35:52;;;;;;;0.57;0.57;;;;;;;12.41;84.55;93921.31;4377985;32;20194;-59
2022/09/27 00:38:20;;;;;;;0.33;0.33;;;;;;;12.37;85.02;93925.75;4395023;32;20181;-59
2022/09/27 00:40:46;;;;;;;0.20;0.20;;;;;;;12.22;86.21;93919.28;4380285;32;20202;-60
2022/09/27 00:43:19;;;;;;;0.00;0.00;;;;;;;12.06;87.45;93929.06;4401852;32;20184;-60
2022/09/27 00:45:54;;;;;;;0.10;0.10;;;;;;;12.15;87.40;93923.63;4388324;32;20183;-60
2022/09/27 00:48:26;;;;;;;0.57;0.30;;;;;;;12.17;87.08;93924.06;4381219;32;20184;-60
2022/09/27 00:51:00;;;;;;;0.10;0.10;;;;;;;11.96;88.39;93922.34;4378974;32;20180;-60
2022/09/27 00:53:45;;;;;;;0.37;0.37;;;;;;;12.07;88.88;93916.53;4379357;32;20192;-60
2022/09/27 00:56:24;;;;;;;0.30;0.30;;;;;;;11.94;89.01;93915.81;4391643;32;20199;-60
2022/09/27 00:59:00;;;;;;;0.30;0.30;;;;;;;11.99;89.84;93912.94;4384683;32;20246;-60
2022/09/27 01:01:30;;;;;;;0.10;0.10;;;;;;;11.90;90.79;93913.06;4358657;32;20222;-60
2022/09/27 01:04:08;;;;;;;0.97;0.50;;;;;;;11.92;90.84;93913.50;4397495;32;20211;-60
2022/09/27 01:06:36;;;;;;;0.60;0.60;;;;;;;11.83;91.54;93904.88;4399916;32;20199;-60
2022/09/27 01:09:06;;;;;;;0.40;0.40;;;;;;;11.76;91.28;93907.31;4379958;32;20185;-60
2022/09/27 01:11:55;;;;;;;0.40;0.40;;;;;;;11.70;92.09;93909.41;4371748;32;20202;-60
2022/09/27 01:14:33;;;;;;;0.20;0.20;;;;;;;11.65;92.76;93899.00;4389835;32;20188;-60
2022/09/27 01:17:20;;;;;;;0.30;0.30;;;;;;;11.59;93.77;93897.72;4382243;32;20262;-61
2022/09/27 01:20:14;;;;;;;0.23;0.23;;;;;;;11.66;92.90;93900.56;4361956;32;20333;-60
2022/09/27 01:22:57;;;;;;;0.53;0.53;;;;;;;11.76;92.77;93887.94;4395992;32;20196;-60
2022/09/27 01:25:44;;;;;;;0.90;0.90;;;;;;;11.90;91.96;93883.81;4389128;32;20199;-61
2022/09/27 01:28:40;;;;;;;0.20;0.20;;;;;;;11.84;92.06;93890.50;4389303;32;20202;-59
2022/09/27 01:31:32;;;;;;;0.37;0.37;;;;;;;11.85;92.07;93886.69;4392968;32;20188;-60
2022/09/27 01:34:15;;;;;;;0.40;0.40;;;;;;;11.63;93.50;93887.19;4399038;32;20188;-60
2022/09/27 01:36:50;;;;;;;0.30;0.30;;;;;;;11.82;93.27;93874.13;4385635;32;20200;-60
2022/09/27 01:39:33;;;;;;;0.23;0.23;;;;;;;11.89;93.06;93871.63;4381889;32;20230;-60
2022/09/27 01:42:05;;;;;;;0.50;0.33;;;;;;;11.71;94.36;93873.75;4387279;32;20218;-60
2022/09/27 01:44:45;;;;;;;0.30;0.30;;;;;;;11.69;94.50;93870.66;4403807;32;20184;-60
2022/09/27 01:47:17;;;;;;;0.50;0.50;;;;;;;11.64;94.16;93857.59;4389872;32;20196;-60
2022/09/27 01:50:06;;;;;;;0.37;0.37;;;;;;;11.63;94.36;93864.06;4377738;32;20298;-61
2022/09/27 01:52:48;;;;;;;0.53;0.53;;;;;;;11.51;95.23;93866.72;4378088;32;20188;-60
2022/09/27 01:55:16;;;;;;;0.50;0.50;;;;;;;11.50;95.31;93869.72;4384974;32;20314;-60
2022/09/27 01:57:49;;;;;;;0.27;0.27;;;;;;;11.62;94.90;93873.13;4389905;32;22406;-60
2022/09/27 02:00:16;;;;;;;0.50;0.50;;;;;;;11.55;95.53;93867.59;4373914;32;20317;-60
2022/09/27 02:02:48;;;;;;;0.30;0.30;;;;;;;11.45;95.64;93870.69;4381355;32;20193;-60
2022/09/27 02:05:18;;;;;;;0.73;0.40;;;;;;;11.52;96.04;93865.63;4381305;32;20184;-60
2022/09/27 02:08:07;;;;;;;0.97;0.97;;;;;;;11.63;96.94;93853.44;4389910;32;20244;-60
2022/09/27 02:10:40;;;;;;;0.23;0.20;;;;;;;11.30;96.72;93860.78;4350624;32;20185;-60
2022/09/27 02:13:23;;;;;;;0.93;0.77;;;;;;;11.36;96.70;93851.47;4333252;32;20188;-60
2022/09/27 02:16:10;;;;;;;0.30;0.30;;;;;;;11.26;96.24;93852.69;4360363;32;20184;-60
2022/09/27 02:19:03;;;;;;;0.10;0.10;;;;;;;11.47;96.12;93851.78;4368367;32;20169;-60
2022/09/27 02:21:41;;;;;;;0.30;0.30;;;;;;;11.41;96.54;93853.91;4395277;32;20245;-60
2022/09/27 02:24:17;;;;;;;0.60;0.60;;;;;;;11.58;96.49;93843.03;4394786;32;20188;-60
2022/09/27 02:26:48;;;;;;;2.93;0.70;;;;;;;11.69;96.15;93844.09;4365495;32;20259;-60
2022/09/27 02:29:33;;;;;;;0.30;0.30;;;;;;;11.55;96.04;93849.00;4374111;32;20252;-60
2022/09/27 02:32:02;;;;;;;0.60;0.60;;;;;;;11.66;96.13;93842.13;4389169;32;20275;-61
2022/09/27 02:34:32;;;;;;;0.30;0.30;;;;;;;11.65;95.89;93848.53;4369773;32;20207;-60
2022/09/27 02:36:58;;;;;;;0.60;0.60;;;;;;;11.59;95.78;93846.47;4368206;32;20191;-60
2022/09/27 02:39:31;;;;;;;7.97;0.77;;;;;;;11.55;96.40;93838.38;4371000;32;20188;-60
2022/09/27 02:42:01;;;;;;;0.30;0.30;;;;;;;11.53;96.11;93845.91;4403405;32;20239;-60
2022/09/27 02:44:28;;;;;;;0.50;0.50;;;;;;;11.50;96.54;93841.28;4396034;32;20203;-60
2022/09/27 02:47:09;;;;;;;0.30;0.30;;;;;;;11.68;96.63;93831.16;4395870;32;20188;-64
2022/09/27 02:50:00;;;;;;;0.47;0.47;;;;;;;11.64;96.98;93827.63;4383804;32;20191;-60
2022/09/27 02:52:49;;;;;;;0.40;0.40;;;;;;;11.60;96.78;93830.19;4362846;32;20203;-60
2022/09/27 02:55:58;;;;;;;0.50;0.50;;;;;;;11.53;96.71;93829.97;4368274;32;20266;-60
2022/09/27 02:58:35;;;;;;;0.27;0.27;;;;;;;11.66;97.42;93823.50;4375163;32;20217;-61
2022/09/27 03:01:11;;;;;;;0.50;0.50;;;;;;;11.69;96.90;93812.22;4378623;32;20238;-60
2022/09/27 03:04:17;;;;;;;0.47;0.47;;;;;;;11.81;96.10;93819.44;4389603;32;20228;-60
2022/09/27 03:06:45;;;;;;;0.53;0.53;;;;;;;11.67;96.58;93811.78;4331885;32;20291;-60
2022/09/27 03:09:23;;;;;;;0.50;0.50;;;;;;;11.75;96.61;93801.38;4337976;32;20188;-60
2022/09/27 03:11:53;;;;;;;0.40;0.40;;;;;;;11.79;96.02;93794.31;4342147;32;20191;-60
2022/09/27 03:14:21;;;;;;;0.10;0.10;;;;;;;11.76;96.16;93790.44;4389830;32;20219;-60
2022/09/27 03:16:46;;;;;;;0.30;0.30;;;;;;;11.90;95.86;93796.13;4395910;32;20208;-59
2022/09/27 03:19:13;;;;;;;1.80;0.90;;;;;;;11.87;96.15;93796.03;4406273;32;20255;-60
2022/09/27 03:21:40;;;;;;;0.73;0.73;;;;;;;11.81;95.87;93798.16;4405561;32;20188;-60
2022/09/27 03:24:08;;;;;;;0.50;0.50;;;;;;;11.83;96.11;93792.53;4383700;32;20188;-60
2022/09/27 03:26:34;;;;;;;0.40;0.40;;;;;;;11.90;95.11;93795.34;4387107;32;20302;-60
2022/09/27 03:29:04;;;;;;;0.63;0.63;;;;;;;11.87;95.56;93786.16;4388314;32;20187;-59
2022/09/27 03:31:29;;;;;;;0.60;0.60;;;;;;;11.77;95.36;93784.00;4377717;32;20207;-60
2022/09/27 03:33:56;;;;;;;0.50;0.50;;;;;;;11.85;95.13;93780.41;4397064;32;20180;-60
2022/09/27 03:36:23;;;;;;;0.57;0.57;;;;;;;11.95;94.94;93774.63;4407297;32;20194;-60
2022/09/27 03:38:49;;;;;;;0.60;0.60;;;;;;;11.93;94.60;93773.41;4378465;32;20340;-60
2022/09/27 03:41:14;;;;;;;0.60;0.60;;;;;;;11.96;94.60;93778.06;4404683;32;20184;-60
2022/09/27 03:43:40;;;;;;;0.50;0.50;;;;;;;11.90;94.65;93776.75;4414098;32;20184;-60
2022/09/27 03:46:07;;;;;;;0.23;0.23;;;;;;;11.87;95.10;93770.22;4371418;32;20221;-60
2022/09/27 03:48:32;;;;;;;0.50;0.50;;;;;;;11.75;95.75;93769.50;4351040;32;20200;-60
2022/09/27 03:50:58;;;;;;;0.63;0.63;;;;;;;11.86;95.41;93771.34;4396940;32;20211;-60
2022/09/27 03:53:25;;;;;;;0.53;0.53;;;;;;;11.83;95.22;93766.72;4374199;32;20192;-61
2022/09/27 03:55:50;;;;;;;12.83;0.80;;;;;;;11.94;94.95;93765.09;4395237;32;20237;-60
2022/09/27 03:58:17;;;;;;;0.10;0.10;;;;;;;11.96;94.63;93762.88;4407699;32;20188;-60
2022/09/27 04:00:45;;;;;;;0.53;0.53;;;;;;;11.90;94.61;93761.59;4364214;32;21973;-60
2022/09/27 04:03:10;;;;;;;0.30;0.30;;;;;;;11.86;94.94;93757.28;4355849;32;20252;-60
2022/09/27 04:05:36;;;;;;;1.47;0.77;;;;;;;11.84;94.76;93759.53;4378851;32;20187;-60
2022/09/27 04:08:02;;;;;;;0.63;0.63;;;;;;;11.85;95.09;93766.34;4366440;32;20192;-60
2022/09/27 04:10:27;;;;;;;0.60;0.60;;;;;;;11.80;95.73;93762.09;4360269;32;20211;-60
2022/09/27 04:12:53;;;;;;;0.30;0.30;;;;;;;11.83;95.32;93763.28;4401146;32;20237;-64
2022/09/27 04:15:18;;;;;;;0.57;0.57;;;;;;;11.85;95.16;93756.50;4371887;32;20184;-60
2022/09/27 04:17:44;;;;;;;0.67;0.60;;;;;;;11.77;95.49;93751.34;4396840;32;20218;-60
2022/09/27 04:20:11;;;;;;;0.97;0.90;;;;;;;11.67;95.87;93755.22;4373238;32;20203;-60
2022/09/27 04:22:42;;;;;;;0.60;0.60;;;;;;;11.73;95.57;93759.19;4381405;32;20188;-60
2022/09/27 04:25:08;;;;;;;0.40;0.40;;;;;;;11.78;95.33;93758.22;4362835;32;20241;-60
2022/09/27 04:27:35;;;;;;;0.80;0.80;;;;;;;11.76;95.52;93763.06;4380073;32;20241;-60
2022/09/27 04:30:08;;;;;;;0.40;0.40;;;;;;;11.73;95.70;93769.81;4378565;32;20203;-60
2022/09/27 04:32:33;;;;;;;0.43;0.43;;;;;;;11.71;95.45;93761.41;4389433;32;20219;-61
2022/09/27 04:37:44;;;;;;;0.40;0.40;;;;;;;11.69;95.53;93760.97;4391196;32;20297;-60
2022/09/27 04:40:11;;;;;;;0.40;0.40;;;;;;;11.64;95.13;93761.97;4396024;32;20262;-60
2022/09/27 04:42:37;;;;;;;0.53;0.53;;;;;;;11.59;95.95;93759.59;4389387;32;20258;-60
2022/09/27 04:45:03;;;;;;;0.70;0.70;;;;;;;11.71;95.26;93770.16;4381054;32;20192;-60
2022/09/27 04:47:30;;;;;;;0.40;0.30;;;;;;;11.72;95.38;93773.59;4375943;32;20204;-59
2022/09/27 04:49:58;;;;;;;0.83;0.73;;;;;;;11.65;95.68;93766.19;4395467;32;20206;-59
2022/09/27 04:52:23;;;;;;;0.27;0.27;;;;;;;11.78;95.26;93771.50;4386817;32;20258;-60
2022/09/27 04:54:49;;;;;;;0.30;0.30;;;;;;;11.66;95.69;93770.38;4363076;32;20185;-60
2022/09/27 04:57:16;;;;;;;0.37;0.37;;;;;;;11.65;95.73;93778.69;4362546;32;20234;-60
2022/09/27 04:59:42;;;;;;;0.53;0.53;;;;;;;11.58;95.88;93778.53;4379827;32;20187;-61
2022/09/27 05:02:12;;;;;;;0.40;0.40;;;;;;;11.67;95.59;93779.91;4399602;32;20285;-60
2022/09/27 05:04:39;;;;;;;0.40;0.40;;;;;;;11.74;95.49;93781.22;4399056;32;20239;-60
2022/09/27 05:07:04;;;;;;;0.43;0.43;;;;;;;11.70;95.10;93771.28;4387401;32;20188;-60
2022/09/27 05:09:31;;;;;;;0.40;0.40;;;;;;;11.51;96.31;93776.44;4357335;32;20203;-60
2022/09/27 05:11:59;;;;;;;0.50;0.50;;;;;;;11.57;96.01;93787.59;4370154;32;20228;-60
2022/09/27 05:14:26;;;;;;;0.57;0.57;;;;;;;11.74;95.53;93784.66;4367988;32;20227;-60
2022/09/27 05:16:54;;;;;;;3.60;0.50;;;;;;;11.40;96.69;93793.19;4388389;32;20188;-60
2022/09/27 05:19:21;;;;;;;0.40;0.40;;;;;;;11.45;96.65;93792.91;4343575;32;20189;-60
2022/09/27 05:21:46;;;;;;;0.20;0.20;;;;;;;11.36;96.90;93791.19;4373514;32;20339;-60
2022/09/27 05:24:16;;;;;;;0.50;0.50;;;;;;;11.11;97.42;93807.47;4372005;32;20238;-59
2022/09/27 05:26:44;;;;;;;0.37;0.37;;;;;;;11.15;96.72;93811.03;4385783;32;20278;-60
2022/09/27 05:29:16;;;;;;;0.50;0.50;;;;;;;11.11;96.64;93810.91;4297396;32;20208;-60
2022/09/27 05:31:48;;;;;;;0.10;0.10;;;;;;;10.87;95.85;93817.00;4243436;32;20198;-60
2022/09/27 05:34:19;;;;;;;0.70;0.20;;;;;;;10.92;95.77;93819.44;4354214;32;20225;-60
2022/09/27 05:36:49;;;;;;;0.30;0.30;;;;;;;10.94;95.90;93825.19;4395686;32;20200;-59
2022/09/27 05:39:19;;;;;;;0.10;0.10;;;;;;;10.99;95.20;93817.00;4411121;32;20251;-60
2022/09/27 05:41:49;;;;;;;0.30;0.30;;;;;;;10.86;96.34;93820.75;4383304;32;20208;-60
2022/09/27 05:44:16;;;;;;;8.87;2.67;;;;;;;10.92;96.02;93822.09;4388246;32;20196;-54
2022/09/27 05:46:42;;;;;;;9.13;1.73;;;;;;;12.83;100.00;93820.53;4365370;32;20305;-52
2022/09/27 05:49:09;;;;;;;19.67;1.13;;;;;;;13.66;100.00;93811.37;4383782;32;20192;-55
2022/09/27 05:51:38;;;;;;;0.83;0.70;;;;;;;14.33;99.18;93817.28;4379685;32;20184;-54
2022/09/27 05:54:06;;;;;;;0.60;0.60;;;;;;;14.73;89.78;93832.88;4349539;32;20276;-55
2022/09/27 05:56:31;;;;;;;0.20;0.20;;;;;;;15.22;85.55;93828.66;4384054;32;20191;-55
2022/09/27 05:58:57;;;;;;;0.30;0.30;;;;;;;15.61;82.63;93824.69;4392074;32;20216;-56
2022/09/27 06:01:26;;;;;;;0.20;0.20;;;;;;;15.56;77.60;93825.00;4388341;32;20206;-55
2022/09/27 06:03:54;;;;;;;0.60;0.37;;;;;;;15.84;79.14;93837.97;4353181;32;20188;-55
2022/09/27 06:06:21;;;;;;;0.30;0.30;;;;;;;15.89;76.89;93845.69;4354973;32;20188;-55
2022/09/27 06:08:48;;;;;;;0.10;0.10;;;;;;;15.92;76.47;93833.50;4364922;32;20188;-56
2022/09/27 06:11:14;;;;;;;0.40;0.40;;;;;;;16.02;76.16;93841.63;4396242;32;20181;-54
2022/09/27 06:13:40;;;;;;;0.00;0.00;;;;;;;16.07;76.16;93845.91;4366984;32;20196;-54
2022/09/27 06:16:07;;;;;;;0.20;0.20;;;;;;;16.09;75.63;93846.31;4382930;32;20295;-56
2022/09/27 06:18:34;;;;;;;1.43;0.60;;;;;;;16.13;75.06;93847.12;4358340;32;20215;-55
2022/09/27 06:21:02;;;;;;;0.73;0.20;;;;;;;16.08;74.50;93860.81;4388502;32;20230;-54
2022/09/27 06:23:34;;;;;;;0.20;0.20;;;;;;;16.02;73.95;93859.59;4362165;32;20203;-54
2022/09/27 06:26:04;;;;;;;0.10;0.10;;;;;;;15.90;73.17;93865.19;4392961;32;20214;-54
2022/09/27 06:28:31;;;;;;;0.03;0.03;;;;;;;15.88;74.19;93862.09;4390212;32;20188;-54
2022/09/27 06:30:59;;;;;;;0.30;0.30;;;;;;;15.91;73.45;93872.06;4391988;32;20281;-54
2022/09/27 06:33:26;;;;;;;0.50;0.30;;;;;;;15.93;74.55;93878.59;4394730;32;20198;-54
2022/09/27 06:35:54;;;;;;;0.00;0.00;;;;;;;15.75;73.78;93878.38;4357612;32;20234;-54
2022/09/27 06:38:21;;;;;;;4.73;0.90;;;;;;;15.85;74.23;93884.19;4395863;32;20215;-52
2022/09/27 06:40:47;;;;;;;0.57;0.57;;;;;;;16.12;83.98;93873.13;4387889;32;20188;-56
2022/09/27 06:43:20;;;;;;;0.60;0.43;;;;;;;16.32;83.12;93878.31;4382202;32;20259;-55
2022/09/27 06:45:47;;;;;;;3.17;0.47;;;;;;;16.11;76.94;93881.50;4398999;32;20195;-54
2022/09/27 06:48:15;;;;;;;0.70;0.70;;;;;;;16.50;79.07;93882.72;4391271;32;20252;-54
2022/09/27 06:50:43;;;;;;;1.67;0.80;;;;;;;16.72;76.25;93893.69;4333726;32;20255;-53
2022/09/27 06:53:12;;;;;;;0.50;0.50;;;;;;;16.49;76.46;93891.13;4397224;32;20251;-54
2022/09/27 06:55:39;;;;;;;0.40;0.40;;;;;;;16.79;75.22;93888.44;4398111;32;20235;-53
2022/09/27 07:00:52;;;;;;;0.10;0.10;;;;;;;16.26;68.96;93885.12;4362849;32;20199;-59
2022/09/27 07:03:22;;;;;;;0.27;0.27;;;;;;;14.31;72.54;93888.87;4403316;32;20188;-60
2022/09/27 07:05:58;;;;;;;1.40;0.67;;;;;;;13.67;75.49;93900.88;4397385;32;20192;-60
2022/09/27 07:08:25;;;;;;;0.67;0.57;;;;;;;12.57;81.72;93913.38;4394222;32;20191;-59
2022/09/27 07:10:51;;;;;;;0.73;0.47;;;;;;;12.33;82.69;93919.56;4392680;32;20200;-59
2022/09/27 07:13:19;;;;;;;0.43;0.30;;;;;;;12.43;84.28;93921.75;4373458;32;20218;-58
2022/09/27 07:15:44;;;;;;;0.60;0.33;;;;;;;12.00;84.17;93927.78;4382194;32;20216;-60
2022/09/27 07:18:12;;;;;;;0.13;0.13;;;;;;;12.01;85.06;93929.31;4415067;32;20263;-59
2022/09/27 07:20:39;;;;;;;0.37;0.37;;;;;;;11.92;84.86;93920.69;4381366;32;20260;-59
2022/09/27 07:23:07;;;;;;;0.33;0.33;;;;;;;12.01;84.85;93914.16;4368946;32;20238;-60
2022/09/27 07:25:34;;;;;;;0.20;0.20;;;;;;;11.87;85.65;93918.25;4371091;32;20268;-59
2022/09/27 07:28:02;;;;;;;0.10;0.10;;;;;;;11.90;83.91;93914.94;4393684;32;20193;-59
2022/09/27 07:30:30;;;;;;;0.17;0.17;;;;;;;11.91;83.99;93909.28;4395904;32;20227;-59
2022/09/27 07:33:02;;;;;;;0.13;0.10;;;;;;;12.01;84.50;93910.72;4377134;32;20211;-59
2022/09/27 07:35:27;;;;;;;0.23;0.23;;;;;;;11.96;84.08;93911.72;4361741;32;20313;-67
2022/09/27 07:37:55;;;;;;;0.30;0.30;;;;;;;11.96;84.85;93910.94;4375648;32;20197;-60
2022/09/27 07:40:24;;;;;;;0.20;0.20;;;;;;;12.00;85.76;93914.47;4373800;32;20197;-59
2022/09/27 07:42:57;;;;;;;0.13;0.13;;;;;;;11.92;86.30;93915.38;4396703;32;20198;-59
2022/09/27 07:45:26;;;;;;;0.20;0.20;;;;;;;12.06;86.94;93915.78;4376348;32;20184;-59
2022/09/27 07:47:53;;;;;;;0.03;0.00;;;;;;;11.93;86.15;93917.69;4375300;32;20258;-59
2022/09/27 07:50:19;;;;;;;0.33;0.30;;;;;;;11.91;85.42;93927.88;4359822;32;20196;-60
2022/09/27 07:52:50;;;;;;;0.20;0.20;;;;;;;11.83;86.41;93920.84;4343097;32;20268;-60
2022/09/27 07:55:17;;;;;;;0.00;0.00;;;;;;;11.92;86.01;93924.13;4395534;32;20210;-60
2022/09/27 07:57:52;;;;;;;0.10;0.10;;;;;;;11.93;86.79;93917.69;4370620;32;20227;-60
2022/09/27 08:00:22;;;;;;;0.00;0.00;;;;;;;11.71;86.53;93931.44;4392244;32;20196;-60
2022/09/27 08:02:48;;;;;;;0.10;0.10;;;;;;;11.80;86.27;93928.69;4391980;32;20200;-60
2022/09/27 08:05:14;;;;;;;0.20;0.20;;;;;;;11.90;86.17;93933.53;4398541;32;20432;-60
2022/09/27 08:07:40;;;;;;;4.17;0.50;;;;;;;11.81;86.38;93936.34;4397805;32;20237;-60
2022/09/27 08:10:08;;;;;;;0.10;0.07;;;;;;;11.95;85.70;93936.75;4387556;32;20211;-59
2022/09/27 08:12:36;;;;;;;0.10;0.10;;;;;;;12.05;82.75;93935.50;4400921;32;20180;-60
2022/09/27 08:15:04;;;;;;;0.07;0.07;;;;;;;12.04;83.67;93945.38;4397996;32;20187;-60
2022/09/27 08:17:32;;;;;;;0.00;0.00;;;;;;;11.92;82.36;93955.22;4392263;32;20244;-60
2022/09/27 08:20:05;;;;;;;0.00;0.00;;;;;;;12.03;86.59;93990.88;4394379;32;20231;-60
2022/09/27 08:22:30;;;;;;;0.00;0.00;;;;;;;11.74;88.32;94007.81;4383090;32;20206;-60
2022/09/27 08:24:55;;;;;;;0.37;0.37;;;;;;;11.60;86.92;93994.87;4378541;32;20184;-59
2022/09/27 08:27:23;;;;;;;0.10;0.10;;;;;;;11.30;87.97;94001.47;4391238;32;20187;-59
2022/09/27 08:29:49;;;;;;;0.00;0.00;;;;;;;11.14;88.28;94003.22;4407529;32;20199;-60
2022/09/27 08:32:19;;;;;;;0.00;0.00;;;;;;;10.82;88.61;94010.09;4378455;32;20275;-60
2022/09/27 08:34:45;;;;;;;0.70;0.50;;;;;;;10.89;88.43;94013.75;4395078;32;20223;-60
2022/09/27 08:37:11;;;;;;;0.00;0.00;;;;;;;10.68;88.39;94013.03;4391815;32;20239;-60
2022/09/27 08:39:37;;;;;;;0.00;0.00;;;;;;;10.60;90.48;94013.88;4393147;32;20207;-60
2022/09/27 08:42:29;;;;;;;0.13;0.13;;;;;;;10.53;91.07;94021.59;4354299;32;20197;-61
2022/09/27 08:45:23;;;;;;;0.20;0.20;;;;;;;10.62;92.03;94035.53;4378365;32;20267;-61
2022/09/27 08:48:00;;;;;;;0.00;0.00;;;;;;;10.43;92.99;94011.34;4392540;32;20255;-60
2022/09/27 08:50:35;;;;;;;0.00;0.00;;;;;;;10.65;92.05;94026.94;4395088;32;20196;-64
2022/09/27 08:53:13;;;;;;;0.10;0.10;;;;;;;10.36;93.92;94022.50;4393741;32;20264;-61
2022/09/27 08:55:54;;;;;;;0.10;0.10;;;;;;;10.72;92.88;94019.25;4365827;32;20259;-62
2022/09/27 08:58:34;;;;;;;0.10;0.10;;;;;;;10.55;93.88;94014.09;4369827;32;20204;-61
2022/09/27 09:01:03;;;;;;;0.10;0.10;;;;;;;10.53;92.60;94021.59;4393601;32;20250;-60
2022/09/27 09:03:33;;;;;;;0.23;0.23;;;;;;;10.40;92.55;94012.00;4356880;32;20224;-61
2022/09/27 09:06:10;;;;;;;0.00;0.00;;;;;;;10.57;94.60;94017.19;4398984;32;20276;-61
2022/09/27 09:09:11;;;;;;;0.00;0.00;;;;;;;10.88;94.23;94014.88;4393220;32;20224;-60
2022/09/27 09:15:19;;;;;;;0.20;0.20;;;;;;;10.76;91.79;94022.78;4378009;32;20198;-61
2022/09/27 09:18:15;;;;;;;0.10;0.10;;;;;;;10.84;91.24;94023.78;4394562;32;20266;-61
2022/09/27 09:20:44;;;;;;;0.00;0.00;;;;;;;11.06;90.40;94020.00;4380222;32;20281;-60
2022/09/27 09:23:41;;;;;;;0.00;0.00;;;;;;;11.08;87.92;94010.59;4401018;32;20192;-61
2022/09/27 09:26:33;;;;;;;0.33;0.33;;;;;;;11.25;89.46;94010.41;4385589;32;20188;-60
2022/09/27 09:29:17;;;;;;;0.20;0.10;;;;;;;11.31;88.91;94008.34;4384130;32;20237;-60
2022/09/27 09:31:58;;;;;;;0.10;0.10;;;;;;;11.59;86.83;94009.25;4382094;32;20192;-61
2022/09/27 09:34:35;;;;;;;0.10;0.10;;;;;;;11.35;86.59;94019.84;4357720;32;20193;-65
2022/09/27 09:37:07;;;;;;;0.37;0.37;;;;;;;11.39;85.61;94015.44;4374131;32;20187;-60
2022/09/27 09:40:00;;;;;;;0.00;0.00;;;;;;;11.55;84.78;94010.25;4406767;32;20208;-60
2022/09/27 09:42:32;;;;;;;0.00;0.00;;;;;;;11.56;84.11;94025.06;4385016;32;20196;-60
2022/09/27 09:45:20;;;;;;;0.10;0.10;;;;;;;11.48;84.31;94028.59;4375954;32;20244;-59
2022/09/27 09:47:49;;;;;;;0.10;0.10;;;;;;;11.29;85.05;94023.81;4364079;32;20193;-61
2022/09/27 09:50:28;;;;;;;0.17;0.17;;;;;;;11.58;84.80;94025.53;4396240;32;20281;-60
2022/09/27 09:53:03;;;;;;;0.10;0.10;;;;;;;11.52;83.21;94024.19;4403283;32;20202;-64
2022/09/27 09:55:32;;;;;;;1.33;0.63;;;;;;;11.52;84.81;94027.63;4402636;32;20218;-60
2022/09/27 09:58:25;;;;;;;1.70;0.37;;;;;;;11.25;84.12;94026.34;4387662;32;20268;-60
2022/09/27 10:00:55;;;;;;;0.00;0.00;;;;;;;11.40;84.52;94027.63;4390890;32;20203;-60
2022/09/27 10:03:21;;;;;;;0.30;0.30;;;;;;;11.32;84.50;94041.75;4377596;32;20207;-60
2022/09/27 10:05:47;;;;;;;0.03;0.03;;;;;;;11.45;83.64;94038.00;4386481;32;20181;-60
2022/09/27 10:08:19;;;;;;;0.00;0.00;;;;;;;11.58;83.34;94036.94;4394966;32;20192;-59
2022/09/27 10:10:45;;;;;;;0.10;0.10;;;;;;;11.81;82.55;94044.50;4380001;32;20263;-59
2022/09/27 10:13:24;;;;;;;1.60;0.30;;;;;;;11.70;82.10;94041.47;4392431;32;20212;-58
2022/09/27 10:16:07;;;;;;;0.10;0.10;;;;;;;11.71;82.50;94054.41;4377305;32;20188;-59
2022/09/27 10:18:36;;;;;;;0.10;0.10;;;;;;;11.64;83.43;94058.72;4376093;32;20209;-60
2022/09/27 10:21:09;;;;;;;0.20;0.20;;;;;;;11.75;84.25;94051.09;4379266;32;20188;-59
2022/09/27 10:24:08;;;;;;;1.50;0.20;;;;;;;11.54;84.86;94051.19;4347465;32;20189;-59
2022/09/27 10:26:47;;;;;;;0.10;0.10;;;;;;;11.56;86.50;94056.94;4364041;32;20238;-59
2022/09/27 10:29:37;;;;;;;0.00;0.00;;;;;;;11.67;85.70;94069.47;4379806;32;20283;-57
2022/09/27 10:32:17;;;;;;;0.10;0.10;;;;;;;11.54;85.71;94062.59;4389443;32;20225;-58
2022/09/27 10:34:46;;;;;;;0.00;0.00;;;;;;;11.39;86.66;94065.13;4391965;32;20188;-58
2022/09/27 10:37:25;;;;;;;0.30;0.30;;;;;;;11.57;85.70;94074.44;4375328;32;20192;-58
2022/09/27 10:39:52;;;;;;;0.10;0.10;;;;;;;11.35;86.28;94072.94;4392387;32;20192;-58
2022/09/27 10:42:37;;;;;;;0.10;0.10;;;;;;;11.33;85.56;94077.81;4362321;32;20195;-58
2022/09/27 10:45:31;;;;;;;0.00;0.00;;;;;;;11.48;87.95;94093.13;4384632;32;20180;-58
2022/09/27 10:47:58;;;;;;;0.00;0.00;;;;;;;11.35;88.45;94084.34;4334081;32;20267;-58
2022/09/27 10:50:27;;;;;;;0.03;0.03;;;;;;;11.26;88.00;94085.53;4385299;32;20180;-61
2022/09/27 10:53:17;;;;;;;0.10;0.10;;;;;;;11.15;90.70;94101.09;4394358;32;20200;-59
2022/09/27 10:55:48;;;;;;;0.40;0.40;;;;;;;11.22;92.19;94085.41;4391420;32;20184;-59
2022/09/27 10:58:51;;;;;;;0.23;0.23;;;;;;;11.34;92.66;94080.13;4413387;32;20285;-59
2022/09/27 11:01:22;;;;;;;0.33;0.33;;;;;;;11.13;94.55;94068.03;4379083;32;20188;-59
2022/09/27 11:03:55;;;;;;;0.73;0.53;;;;;;;11.30;95.12;94070.50;4380226;32;20196;-59
2022/09/27 11:06:37;;;;;;;0.57;0.57;;;;;;;11.47;95.35;94080.94;4367866;32;20192;-58
2022/09/27 11:09:25;;;;;;;0.00;0.00;;;;;;;11.43;95.19;94073.97;4389315;32;20196;-59
2022/09/27 11:12:14;;;;;;;0.30;0.30;;;;;;;11.59;95.23;94072.22;4390829;32;20184;-59
2022/09/27 11:14:41;;;;;;;0.10;0.10;;;;;;;11.40;94.50;94064.78;4397717;32;20191;-58
2022/09/27 11:17:23;;;;;;;0.00;0.00;;;;;;;11.44;94.02;94073.63;4383203;32;20257;-58
2022/09/27 11:20:24;;;;;;;0.00;0.00;;;;;;;11.57;93.06;94067.25;4393953;32;20211;-58
2022/09/27 11:23:22;;;;;;;1.33;0.60;;;;;;;11.68;94.24;94068.34;4396930;32;20210;-59
2022/09/27 11:26:17;;;;;;;0.10;0.10;;;;;;;11.77;90.98;94072.81;4374970;32;20222;-58
2022/09/27 11:29:14;;;;;;;0.10;0.10;;;;;;;11.89;90.11;94070.16;4386915;32;20249;-58
2022/09/27 11:32:31;;;;;;;0.20;0.20;;;;;;;11.80;87.44;94064.19;4381346;32;20200;-58
2022/09/27 11:35:21;;;;;;;0.33;0.33;;;;;;;11.53;85.75;94071.66;4367462;32;20189;-58
2022/09/27 11:38:18;;;;;;;0.10;0.10;;;;;;;11.42;86.87;94075.09;4372596;32;20274;-58
2022/09/27 11:41:18;;;;;;;0.10;0.10;;;;;;;11.23;86.32;94064.94;4407666;32;21637;-60
2022/09/27 11:44:21;;;;;;;0.20;0.20;;;;;;;11.00;86.15;94070.66;4378032;32;20245;-59
2022/09/27 11:47:19;;;;;;;0.07;0.07;;;;;;;11.09;87.47;94057.28;4372287;32;20216;-59
2022/09/27 11:50:07;;;;;;;0.13;0.13;;;;;;;11.23;85.80;94056.97;4373436;32;20197;-58
2022/09/27 11:53:18;;;;;;;0.00;0.00;;;;;;;11.45;85.41;94058.47;4392223;32;20177;-58
2022/09/27 11:56:05;;;;;;;0.10;0.10;;;;;;;11.83;85.77;94060.88;4357666;32;20177;-58
2022/09/27 11:58:47;;;;;;;0.07;0.07;;;;;;;11.77;85.40;94057.66;4387247;32;20187;-58
2022/09/27 12:01:31;;;;;;;0.20;0.20;;;;;;;11.85;85.91;94046.13;4405242;32;20194;-58
2022/09/27 12:04:37;;;;;;;2.47;0.43;;;;;;;12.11;85.94;94045.81;4383650;32;20204;-66
2022/09/27 12:07:21;;;;;;;0.00;0.00;;;;;;;11.83;84.37;94050.25;4384610;32;20204;-59
2022/09/27 12:09:56;;;;;;;0.23;0.23;;;;;;;11.77;84.46;94040.94;4364028;32;20208;-58
2022/09/27 12:12:27;;;;;;;0.10;0.10;;;;;;;12.03;84.23;94034.19;4362031;32;20199;-58
2022/09/27 12:15:33;;;;;;;0.20;0.20;;;;;;;11.81;85.67;94031.22;4392301;32;20211;-58